createdAt,value
2023-05-04T00:00:00.313Z,13.70
2023-05-04T00:02:28.149Z,14.43
2023-05-04T00:04:55.872Z,12.32
2023-05-04T00:07:23.271Z,13.23
2023-05-04T00:09:50.823Z,13.80
2023-05-04T00:12:18.478Z,11.25
2023-05-04T00:14:45.806Z,11.90
2023-05-04T00:17:13.192Z,15.02
2023-05-04T00:19:42.321Z,10.35
2023-05-04T00:22:09.817Z,11.32
2023-05-04T00:24:37.192Z,12.43
2023-05-04T00:27:04.817Z,12.57
2023-05-04T00:29:32.382Z,12.32
2023-05-04T00:31:59.781Z,11.05
2023-05-04T00:34:27.475Z,14.68
2023-05-04T00:36:55.953Z,12.27
2023-05-04T00:39:23.327Z,11.00
2023-05-04T00:41:50.973Z,10.05
2023-05-04T00:44:18.355Z,10.70
2023-05-04T00:46:46.025Z,9.38
2023-05-04T00:49:13.706Z,10.13
2023-05-04T00:51:41.209Z,14.90
2023-05-04T00:54:08.554Z,10.70
2023-05-04T00:56:42.149Z,10.15
2023-05-04T00:59:09.749Z,10.80
2023-05-04T01:01:37.498Z,10.65
2023-05-04T01:04:05.296Z,9.80
2023-05-04T01:06:44.099Z,10.50
2023-05-04T01:09:17.195Z,10.25
2023-05-04T01:11:48.944Z,11.75
2023-05-04T01:14:17.072Z,12.73
2023-05-04T01:16:44.472Z,12.52
2023-05-04T01:19:11.862Z,9.02
2023-05-04T01:21:39.615Z,10.65
2023-05-04T01:24:06.979Z,10.25
2023-05-04T01:26:39.639Z,11.18
2023-05-04T01:29:18.521Z,9.38
2023-05-04T01:31:46.451Z,11.93
2023-05-04T01:34:14.324Z,13.15
2023-05-04T01:36:41.772Z,13.10
2023-05-04T01:39:09.928Z,11.07
2023-05-04T01:41:37.594Z,9.85
2023-05-04T01:44:05.464Z,10.07
2023-05-04T01:46:32.840Z,13.57
2023-05-04T01:49:00.723Z,9.43
2023-05-04T01:51:28.062Z,9.95
2023-05-04T01:53:55.683Z,9.93
2023-05-04T01:56:23.359Z,8.25
2023-05-04T01:58:52.294Z,12.48
2023-05-04T02:01:19.706Z,17.05
2023-05-04T02:03:48.633Z,10.38
2023-05-04T02:06:16.207Z,9.48
2023-05-04T02:08:43.579Z,10.82
2023-05-04T02:11:11.258Z,9.45
2023-05-04T02:13:39.137Z,11.80
2023-05-04T02:16:06.837Z,11.80
2023-05-04T02:18:34.557Z,9.95
2023-05-04T02:21:01.938Z,11.18
2023-05-04T02:23:29.737Z,9.65
2023-05-04T02:25:59.114Z,9.80
2023-05-04T02:28:26.494Z,9.82
2023-05-04T02:30:53.879Z,9.45
2023-05-04T02:33:21.515Z,10.80
2023-05-04T02:35:48.887Z,10.55
2023-05-04T02:38:16.534Z,9.57
2023-05-04T02:40:43.939Z,12.37
2023-05-04T02:43:11.649Z,11.23
2023-05-04T02:45:39.309Z,14.95
2023-05-04T02:48:06.763Z,15.77
2023-05-04T02:50:34.147Z,13.05
2023-05-04T02:53:01.768Z,14.50
2023-05-04T02:55:29.305Z,11.98
2023-05-04T02:57:56.677Z,13.27
2023-05-04T03:00:24.564Z,12.15
2023-05-04T03:02:51.992Z,15.25
2023-05-04T03:05:19.413Z,12.95
2023-05-04T03:07:47.071Z,13.27
2023-05-04T03:10:14.456Z,12.10
2023-05-04T03:12:41.884Z,11.73
2023-05-04T03:15:09.641Z,12.05
2023-05-04T03:17:37.261Z,13.82
2023-05-04T03:20:05.845Z,11.43
2023-05-04T03:22:34.014Z,14.80
2023-05-04T03:25:01.646Z,15.65
2023-05-04T03:27:29.762Z,11.80
2023-05-04T03:29:57.580Z,12.75
2023-05-04T03:32:26.450Z,12.77
2023-05-04T03:34:53.946Z,11.88
2023-05-04T03:37:22.968Z,13.50
2023-05-04T03:39:50.376Z,11.75
2023-05-04T03:42:17.772Z,15.85
2023-05-04T03:44:46.573Z,15.80
2023-05-04T03:47:14.008Z,13.30
2023-05-04T03:49:41.367Z,17.65
2023-05-04T03:52:08.946Z,13.02
2023-05-04T03:54:37.738Z,12.98
2023-05-04T03:57:05.210Z,15.88
2023-05-04T03:59:33.281Z,12.77
2023-05-04T04:02:02.669Z,13.02
2023-05-04T04:04:30.403Z,14.73
2023-05-04T04:06:58.048Z,15.70
2023-05-04T04:09:25.806Z,15.93
2023-05-04T04:11:53.454Z,13.73
2023-05-04T04:14:20.824Z,13.85
2023-05-04T04:16:48.199Z,14.65
2023-05-04T04:19:15.843Z,15.52
2023-05-04T04:21:43.192Z,16.27
2023-05-04T04:24:11.138Z,14.87
2023-05-04T04:26:38.942Z,12.85
2023-05-04T04:29:06.350Z,13.60
2023-05-04T04:31:33.772Z,17.10
2023-05-04T04:34:01.398Z,14.95
2023-05-04T04:36:28.807Z,12.75
2023-05-04T04:38:56.384Z,12.68
2023-05-04T04:41:25.042Z,14.57
2023-05-04T04:43:52.475Z,13.57
2023-05-04T04:46:19.902Z,17.15
2023-05-04T04:48:47.897Z,15.32
2023-05-04T04:51:15.292Z,12.27
2023-05-04T04:53:42.624Z,10.70
2023-05-04T04:56:10.547Z,11.68
2023-05-04T04:58:37.961Z,13.43
2023-05-04T05:01:05.539Z,10.77
2023-05-04T05:03:33.835Z,10.27
2023-05-04T05:06:04.074Z,10.50
2023-05-04T05:08:32.801Z,12.32
2023-05-04T05:11:00.395Z,10.95
2023-05-04T05:13:27.748Z,8.85
2023-05-04T05:15:55.106Z,7.25
2023-05-04T05:18:23.249Z,10.05
2023-05-04T05:20:50.737Z,7.12
2023-05-04T05:23:18.090Z,8.15
2023-05-04T05:25:45.772Z,6.70
2023-05-04T05:28:16.408Z,7.82
2023-05-04T05:30:44.169Z,5.78
2023-05-04T05:33:12.023Z,6.95
2023-05-04T05:35:39.782Z,8.15
2023-05-04T05:38:07.159Z,7.97
2023-05-04T05:40:34.814Z,7.03
2023-05-04T05:43:02.656Z,10.40
2023-05-04T05:45:30.210Z,5.78
2023-05-04T05:47:57.852Z,9.18
2023-05-04T05:50:25.234Z,5.82
2023-05-04T05:52:52.654Z,8.32
2023-05-04T05:55:20.291Z,6.78
2023-05-04T05:57:47.797Z,9.43
2023-05-04T06:00:15.855Z,6.30
2023-05-04T06:02:43.714Z,5.70
2023-05-04T06:05:11.685Z,7.43
2023-05-04T06:07:39.548Z,6.43
2023-05-04T06:10:07.588Z,6.62
2023-05-04T06:12:35.522Z,6.45
2023-05-04T06:15:02.955Z,7.43
2023-05-04T06:17:31.144Z,7.22
2023-05-04T06:19:58.529Z,6.25
2023-05-04T06:22:25.875Z,7.25
2023-05-04T06:24:56.790Z,7.65
2023-05-04T06:27:28.949Z,7.40
2023-05-04T06:29:56.622Z,7.57
2023-05-04T06:32:24.012Z,7.10
2023-05-04T06:34:57.447Z,8.38
2023-05-04T06:37:26.449Z,8.18
2023-05-04T06:39:54.679Z,7.65
2023-05-04T06:42:22.067Z,8.55
2023-05-04T06:44:51.350Z,8.00
2023-05-04T06:47:18.717Z,8.75
2023-05-04T06:49:46.043Z,8.43
2023-05-04T06:52:14.418Z,9.02
2023-05-04T06:54:41.895Z,8.50
2023-05-04T06:57:09.268Z,8.65
2023-05-04T06:59:37.032Z,9.02
2023-05-04T07:02:04.666Z,9.07
2023-05-04T07:04:32.080Z,8.50
2023-05-04T07:06:59.705Z,8.85
2023-05-04T07:09:27.305Z,9.18
2023-05-04T07:11:54.667Z,9.00
2023-05-04T07:14:22.328Z,8.77
2023-05-04T07:16:49.728Z,9.00
2023-05-04T07:19:17.552Z,8.65
2023-05-04T07:21:45.217Z,8.57
2023-05-04T07:24:12.574Z,8.25
2023-05-04T07:26:39.934Z,9.30
2023-05-04T07:29:07.600Z,10.50
2023-05-04T07:31:35.270Z,9.02
2023-05-04T07:34:02.675Z,9.73
2023-05-04T07:36:30.698Z,8.43
2023-05-04T07:38:58.102Z,8.82
2023-05-04T07:41:26.403Z,8.70
2023-05-04T07:43:54.032Z,9.77
2023-05-04T07:46:21.437Z,9.07
2023-05-04T07:48:49.414Z,8.70
2023-05-04T07:51:17.073Z,9.77
2023-05-04T07:53:44.418Z,9.38
2023-05-04T07:56:12.670Z,9.73
2023-05-04T07:58:41.423Z,9.32
2023-05-04T08:01:08.836Z,8.88
2023-05-04T08:03:36.556Z,9.07
2023-05-04T08:06:03.935Z,9.30
2023-05-04T08:08:31.333Z,9.88
2023-05-04T08:11:11.566Z,9.52
2023-05-04T08:13:40.276Z,10.50
2023-05-04T08:16:09.428Z,10.15
2023-05-04T08:18:37.179Z,9.65
2023-05-04T08:21:05.054Z,9.60
2023-05-04T08:23:33.522Z,9.68
2023-05-04T08:26:04.337Z,9.07
2023-05-04T08:28:40.476Z,9.30
2023-05-04T08:31:08.269Z,9.32
2023-05-04T08:33:35.628Z,9.45
2023-05-04T08:36:04.462Z,9.15
2023-05-04T08:38:32.205Z,9.88
2023-05-04T08:41:05.437Z,9.57
2023-05-04T08:43:36.779Z,9.63
2023-05-04T08:46:04.856Z,9.52
2023-05-04T08:48:35.484Z,10.05
2023-05-04T08:51:04.348Z,9.85
2023-05-04T08:53:31.951Z,9.73
2023-05-04T08:56:04.682Z,9.73
2023-05-04T08:58:32.139Z,10.27
2023-05-04T09:00:59.875Z,10.63
2023-05-04T09:03:28.007Z,10.27
2023-05-04T09:05:55.519Z,10.65
2023-05-04T09:08:23.148Z,10.82
2023-05-04T09:10:50.493Z,10.85
2023-05-04T09:13:18.026Z,10.88
2023-05-04T09:15:55.781Z,10.55
2023-05-04T09:18:23.491Z,10.57
2023-05-04T09:20:51.256Z,10.90
2023-05-04T09:23:18.757Z,10.50
2023-05-04T09:25:49.812Z,11.23
2023-05-04T09:28:18.211Z,10.05
2023-05-04T09:30:46.918Z,12.30
2023-05-04T09:33:17.624Z,10.68
2023-05-04T09:35:45.494Z,11.23
2023-05-04T09:38:24.112Z,12.27
2023-05-04T09:40:52.179Z,11.77
2023-05-04T09:43:19.536Z,11.65
2023-05-04T09:45:47.359Z,11.30
2023-05-04T09:48:29.377Z,12.05
2023-05-04T09:51:00.972Z,11.88
2023-05-04T09:53:29.638Z,11.40
2023-05-04T09:56:11.238Z,12.18
2023-05-04T09:58:39.023Z,13.05
2023-05-04T10:01:06.450Z,12.52
2023-05-04T10:03:34.095Z,12.65
2023-05-04T10:06:04.319Z,13.73
2023-05-04T10:08:32.685Z,14.30
2023-05-04T10:11:00.430Z,15.48
2023-05-04T10:13:28.136Z,15.20
2023-05-04T10:16:01.442Z,14.43
2023-05-04T10:19:03.898Z,14.10
2023-05-04T10:21:56.173Z,13.48
2023-05-04T10:24:39.380Z,31.75
2023-05-04T10:27:19.376Z,13.45
2023-05-04T10:29:50.834Z,15.15
2023-05-04T10:32:20.067Z,13.43
2023-05-04T10:34:47.988Z,15.48
2023-05-04T10:37:19.453Z,14.57
2023-05-04T10:39:53.689Z,15.65
2023-05-04T10:42:21.474Z,15.15
2023-05-04T10:44:55.563Z,14.75
2023-05-04T10:47:33.402Z,14.57
2023-05-04T10:50:04.674Z,12.52
2023-05-04T10:52:33.020Z,12.98
2023-05-04T10:55:05.513Z,12.23
2023-05-04T10:57:33.340Z,11.73
2023-05-04T11:00:01.657Z,12.68
2023-05-04T11:02:31.662Z,12.65
2023-05-04T11:05:02.059Z,12.55
2023-05-04T11:07:37.539Z,13.15
2023-05-04T11:10:06.078Z,12.00
2023-05-04T11:12:33.557Z,12.80
2023-05-04T11:15:10.183Z,11.55
2023-05-04T11:17:53.290Z,11.77
2023-05-04T11:20:24.697Z,11.40
2023-05-04T11:22:53.110Z,12.48
2023-05-04T11:25:29.664Z,11.00
2023-05-04T11:27:58.412Z,11.45
2023-05-04T11:30:53.286Z,12.55
2023-05-04T11:33:22.707Z,13.32
2023-05-04T11:35:50.206Z,14.00
2023-05-04T11:38:19.963Z,14.52
2023-05-04T11:40:47.828Z,16.27
2023-05-04T11:43:15.200Z,16.05
2023-05-04T11:45:42.669Z,15.15
2023-05-04T11:48:10.375Z,15.45
2023-05-04T11:50:37.790Z,15.27
2023-05-04T11:53:09.633Z,15.63
2023-05-04T11:55:38.056Z,15.80
2023-05-04T11:58:09.787Z,16.17
2023-05-04T12:00:41.651Z,14.10
2023-05-04T12:03:16.615Z,13.60
2023-05-04T12:05:48.437Z,14.87
2023-05-04T12:08:26.352Z,14.40
2023-05-04T12:11:09.093Z,14.02
2023-05-04T12:13:36.851Z,15.32
2023-05-04T12:16:11.042Z,16.40
2023-05-04T12:18:38.767Z,18.42
2023-05-04T12:21:10.442Z,14.40
2023-05-04T12:23:38.697Z,15.35
2023-05-04T12:26:06.776Z,14.00
2023-05-04T12:28:37.676Z,14.38
2023-05-04T12:31:05.225Z,14.40
2023-05-04T12:33:33.289Z,14.05
2023-05-04T12:36:01.319Z,15.02
2023-05-04T12:38:29.055Z,14.73
2023-05-04T12:40:59.040Z,14.48
2023-05-04T12:43:26.955Z,13.05
2023-05-04T12:45:54.586Z,13.95
2023-05-04T12:48:22.424Z,14.95
2023-05-04T12:50:50.874Z,14.65
2023-05-04T12:53:18.539Z,14.90
2023-05-04T12:55:46.698Z,14.25
2023-05-04T12:58:14.099Z,14.30
2023-05-04T13:00:41.542Z,15.95
2023-05-04T13:03:09.731Z,13.73
2023-05-04T13:05:37.250Z,13.45
2023-05-04T13:08:04.816Z,13.07
2023-05-04T13:10:32.949Z,15.13
2023-05-04T13:13:00.453Z,13.80
2023-05-04T13:15:28.094Z,13.43
2023-05-04T13:17:55.731Z,14.57
2023-05-04T13:20:23.148Z,14.15
2023-05-04T13:22:51.667Z,13.55
2023-05-04T13:25:19.366Z,13.60
2023-05-04T13:27:46.757Z,13.82
2023-05-04T13:30:14.221Z,15.43
2023-05-04T13:32:42.081Z,14.82
2023-05-04T13:35:09.771Z,14.80
2023-05-04T13:37:38.199Z,15.38
2023-05-04T13:40:06.218Z,13.98
2023-05-04T13:42:36.369Z,14.50
2023-05-04T13:45:05.565Z,16.73
2023-05-04T13:47:34.148Z,15.57
2023-05-04T13:50:02.095Z,16.42
2023-05-04T13:52:31.954Z,16.60
2023-05-04T13:55:00.257Z,15.77
2023-05-04T13:57:28.039Z,15.82
2023-05-04T14:00:06.328Z,15.82
2023-05-04T14:02:37.956Z,14.80
2023-05-04T14:05:06.888Z,15.55
2023-05-04T14:07:34.630Z,14.35
2023-05-04T14:10:02.473Z,15.00
2023-05-04T14:12:30.257Z,13.45
2023-05-04T14:14:58.965Z,13.35
2023-05-04T14:17:26.474Z,12.93
2023-05-04T14:19:54.093Z,14.70
2023-05-04T14:22:21.430Z,12.70
2023-05-04T14:24:49.435Z,13.25
2023-05-04T14:27:17.575Z,13.35
2023-05-04T14:29:47.622Z,13.80
2023-05-04T14:32:15.537Z,12.93
2023-05-04T14:34:43.208Z,13.57
2023-05-04T14:37:10.570Z,13.43
2023-05-04T14:39:39.415Z,14.60
2023-05-04T14:42:07.058Z,12.43
2023-05-04T14:44:34.465Z,12.98
2023-05-04T14:47:04.836Z,13.02
2023-05-04T14:49:37.165Z,12.80
2023-05-04T14:52:05.131Z,13.95
2023-05-04T14:54:32.629Z,13.25
2023-05-04T14:57:00.316Z,12.65
2023-05-04T14:59:27.790Z,13.20
2023-05-04T15:01:55.741Z,15.85
2023-05-04T15:04:23.521Z,13.57
2023-05-04T15:06:52.340Z,13.52
2023-05-04T15:09:19.744Z,13.57
2023-05-04T15:11:48.559Z,13.07
2023-05-04T15:14:16.293Z,12.07
2023-05-04T15:16:43.703Z,13.40
2023-05-04T15:19:11.313Z,13.95
2023-05-04T15:21:38.724Z,12.90
2023-05-04T15:24:06.154Z,12.37
2023-05-04T15:26:34.632Z,12.77
2023-05-04T15:29:02.111Z,13.02
2023-05-04T15:31:29.594Z,13.05
2023-05-04T15:33:57.239Z,14.90
2023-05-04T15:36:24.762Z,13.00
2023-05-04T15:38:52.152Z,16.62
2023-05-04T15:41:19.804Z,13.18
2023-05-04T15:43:47.192Z,11.98
2023-05-04T15:46:14.590Z,12.27
2023-05-04T15:48:42.553Z,12.05
2023-05-04T15:51:11.213Z,12.88
2023-05-04T15:53:38.797Z,12.07
2023-05-04T15:56:06.525Z,12.25
2023-05-04T15:58:33.931Z,12.37
2023-05-04T16:01:04.064Z,12.00
2023-05-04T16:03:32.247Z,12.50
2023-05-04T16:05:59.801Z,11.82
2023-05-04T16:08:27.477Z,11.77
2023-05-04T16:10:55.925Z,11.65
2023-05-04T16:13:23.321Z,11.25
2023-05-04T16:15:51.330Z,11.73
2023-05-04T16:18:19.026Z,11.95
2023-05-04T16:20:47.229Z,11.12
2023-05-04T16:23:15.763Z,10.63
2023-05-04T16:25:43.515Z,10.73
2023-05-04T16:28:11.171Z,11.10
2023-05-04T16:30:38.654Z,10.50
2023-05-04T16:33:06.345Z,11.98
2023-05-04T16:35:34.485Z,9.90
2023-05-04T16:38:01.985Z,14.82
2023-05-04T16:40:30.767Z,10.85
2023-05-04T16:42:58.607Z,11.43
2023-05-04T16:45:31.197Z,10.45
2023-05-04T16:47:58.973Z,10.65
2023-05-04T16:50:26.433Z,10.40
2023-05-04T16:52:53.861Z,11.73
2023-05-04T16:55:21.732Z,11.43
2023-05-04T16:57:49.521Z,11.05
2023-05-04T17:00:17.082Z,11.07
2023-05-04T17:02:45.482Z,11.10
2023-05-04T17:05:12.989Z,10.20
2023-05-04T17:07:43.024Z,11.55
2023-05-04T17:10:10.974Z,10.98
2023-05-04T17:12:38.587Z,10.38
2023-05-04T17:15:06.622Z,10.73
2023-05-04T17:17:34.254Z,10.38
2023-05-04T17:20:02.446Z,12.35
2023-05-04T17:22:29.880Z,10.18
2023-05-04T17:24:57.554Z,23.95
2023-05-04T17:27:24.927Z,11.38
2023-05-04T17:29:52.270Z,10.55
2023-05-04T17:32:20.037Z,17.15
2023-05-04T17:34:47.432Z,11.38
2023-05-04T17:37:14.810Z,10.88
2023-05-04T17:39:42.480Z,13.82
2023-05-04T17:42:10.774Z,10.43
2023-05-04T17:44:38.134Z,11.02
2023-05-04T17:47:06.284Z,10.75
2023-05-04T17:49:33.623Z,10.73
2023-05-04T17:52:01.433Z,11.07
2023-05-04T17:54:29.034Z,10.18
2023-05-04T17:56:56.401Z,10.75
2023-05-04T17:59:23.757Z,10.73
2023-05-04T18:01:51.401Z,11.40
2023-05-04T18:04:19.038Z,11.77
2023-05-04T18:06:47.022Z,10.90
2023-05-04T18:09:15.534Z,10.63
2023-05-04T18:11:43.177Z,12.88
2023-05-04T18:14:10.569Z,9.93
2023-05-04T18:16:39.300Z,9.45
2023-05-04T18:19:07.108Z,9.60
2023-05-04T18:21:37.434Z,11.48
2023-05-04T18:24:05.035Z,10.48
2023-05-04T18:26:32.677Z,11.40
2023-05-04T18:29:11.110Z,13.68
2023-05-04T18:31:45.380Z,11.02
2023-05-04T18:34:12.827Z,16.00
2023-05-04T18:36:40.518Z,13.32
2023-05-04T18:39:08.716Z,12.07
2023-05-04T18:41:36.108Z,13.32
2023-05-04T18:44:15.356Z,9.63
2023-05-04T18:46:42.790Z,10.70
2023-05-04T18:49:10.263Z,11.15
2023-05-04T18:51:41.565Z,11.07
2023-05-04T18:54:09.164Z,14.30
2023-05-04T18:56:36.548Z,10.55
2023-05-04T18:59:06.041Z,10.65
2023-05-04T19:01:33.467Z,12.15
2023-05-04T19:04:01.321Z,12.75
2023-05-04T19:06:28.782Z,11.68
2023-05-04T19:08:56.148Z,11.73
2023-05-04T19:11:23.847Z,11.68
2023-05-04T19:13:51.458Z,11.93
2023-05-04T19:16:18.946Z,11.30
2023-05-04T19:18:46.673Z,11.52
2023-05-04T19:21:14.058Z,11.85
2023-05-04T19:23:41.388Z,14.10
2023-05-04T19:26:09.315Z,9.32
2023-05-04T19:28:36.838Z,11.40
2023-05-04T19:31:04.246Z,10.50
2023-05-04T19:33:44.632Z,10.75
2023-05-04T19:36:16.314Z,13.25
2023-05-04T19:38:44.104Z,14.45
2023-05-04T19:41:11.482Z,10.52
2023-05-04T19:43:39.034Z,12.02
2023-05-04T19:46:06.790Z,12.40
2023-05-04T19:48:34.187Z,11.75
2023-05-04T19:51:02.169Z,11.65
2023-05-04T19:53:31.153Z,10.60
2023-05-04T19:55:58.560Z,9.98
2023-05-04T19:58:28.121Z,9.73
2023-05-04T20:00:56.089Z,10.50
2023-05-04T20:03:24.011Z,10.32
2023-05-04T20:05:51.830Z,13.45
2023-05-04T20:08:19.193Z,10.65
2023-05-04T20:10:46.901Z,9.73
2023-05-04T20:13:14.790Z,10.25
2023-05-04T20:15:42.741Z,11.15
2023-05-04T20:18:10.364Z,10.60
2023-05-04T20:20:37.929Z,9.77
2023-05-04T20:23:05.334Z,10.40
2023-05-04T20:25:32.998Z,12.88
2023-05-04T20:28:00.770Z,11.15
2023-05-04T20:30:28.907Z,11.02
2023-05-04T20:32:56.632Z,10.88
2023-05-04T20:35:24.059Z,12.95
2023-05-04T20:37:51.404Z,12.00
2023-05-04T20:40:19.730Z,12.48
2023-05-04T20:42:47.231Z,10.40
2023-05-04T20:45:14.587Z,16.25
2023-05-04T20:47:42.706Z,10.30
2023-05-04T20:50:11.876Z,11.23
2023-05-04T20:52:39.298Z,10.18
2023-05-04T20:55:07.958Z,11.73
2023-05-04T20:57:35.416Z,9.95
2023-05-04T21:00:03.272Z,10.02
2023-05-04T21:02:31.591Z,10.40
2023-05-04T21:04:58.997Z,10.30
2023-05-04T21:07:26.343Z,11.75
2023-05-04T21:09:58.138Z,9.85
2023-05-04T21:12:25.956Z,9.57
2023-05-04T21:14:53.579Z,13.38
2023-05-04T21:17:20.986Z,9.07
2023-05-04T21:19:48.369Z,9.07
2023-05-04T21:22:17.667Z,9.98
2023-05-04T21:24:46.532Z,9.30
2023-05-04T21:27:14.075Z,10.30
2023-05-04T21:29:41.706Z,10.48
2023-05-04T21:32:09.219Z,11.07
2023-05-04T21:34:36.599Z,9.57
2023-05-04T21:37:04.243Z,13.60
2023-05-04T21:39:31.828Z,10.35
2023-05-04T21:41:59.206Z,14.65
2023-05-04T21:44:26.811Z,9.68
2023-05-04T21:46:55.796Z,10.48
2023-05-04T21:49:23.215Z,9.57
2023-05-04T21:51:50.966Z,10.38
2023-05-04T21:54:18.318Z,9.00
2023-05-04T21:56:45.709Z,9.57
2023-05-04T21:59:13.328Z,10.38
2023-05-04T22:01:42.370Z,12.10
2023-05-04T22:04:10.060Z,13.07
2023-05-04T22:06:37.632Z,10.88
2023-05-04T22:09:05.149Z,11.32
2023-05-04T22:11:32.802Z,9.43
2023-05-04T22:14:00.259Z,13.75
2023-05-04T22:16:27.856Z,10.60
2023-05-04T22:18:55.493Z,11.80
2023-05-04T22:21:22.814Z,12.20
2023-05-04T22:23:50.298Z,11.57
2023-05-04T22:26:17.912Z,12.93
2023-05-04T22:28:45.330Z,10.68
2023-05-04T22:31:12.718Z,11.00
2023-05-04T22:33:40.356Z,10.30
2023-05-04T22:36:07.853Z,8.70
2023-05-04T22:38:35.192Z,8.75
2023-05-04T22:41:03.201Z,9.25
2023-05-04T22:43:30.660Z,11.88
2023-05-04T22:45:58.011Z,10.77
2023-05-04T22:48:25.709Z,9.75
2023-05-04T22:50:53.171Z,8.52
2023-05-04T22:53:20.679Z,8.10
2023-05-04T22:55:48.287Z,8.80
2023-05-04T22:58:15.835Z,13.68
2023-05-04T23:00:43.213Z,8.32
2023-05-04T23:03:10.922Z,8.65
2023-05-04T23:05:38.329Z,8.25
2023-05-04T23:08:05.793Z,7.30
2023-05-04T23:10:33.434Z,7.18
2023-05-04T23:13:01.113Z,8.05
2023-05-04T23:15:28.484Z,7.47
2023-05-04T23:17:56.115Z,8.07
2023-05-04T23:20:23.428Z,7.47
2023-05-04T23:22:51.036Z,6.57
2023-05-04T23:25:18.638Z,7.22
2023-05-04T23:27:45.969Z,8.80
2023-05-04T23:30:13.363Z,9.15
2023-05-04T23:32:40.987Z,7.03
2023-05-04T23:35:08.702Z,6.80
2023-05-04T23:37:36.201Z,7.12
2023-05-04T23:40:04.013Z,9.20
2023-05-04T23:42:31.404Z,8.93
2023-05-04T23:44:58.764Z,8.20
2023-05-04T23:47:26.353Z,9.20
2023-05-04T23:49:53.715Z,7.75
2023-05-04T23:52:21.082Z,9.77
2023-05-04T23:54:52.823Z,8.05
2023-05-04T23:57:20.179Z,10.30
2023-05-04T23:59:47.653Z,7.15
